sensor_id;sensor_type;location;lat;lon;timestamp;P1;durP1;ratioP1;P2;durP2;ratioP2
24090;SDS011;12272;52.426;17.100;2022-08-01T00:04:34;2.28;;;1.95;;
24090;SDS011;12272;52.426;17.100;2022-08-01T00:09:36;2.40;;;2.20;;
24090;SDS011;12272;52.426;17.100;2022-08-01T00:14:39;1.95;;;1.83;;
24090;SDS011;12272;52.426;17.100;2022-08-01T00:19:41;2.15;;;1.95;;
24090;SDS011;12272;52.426;17.100;2022-08-01T00:24:44;1.65;;;1.55;;
24090;SDS011;12272;52.426;17.100;2022-08-01T00:29:46;2.28;;;2.08;;
24090;SDS011;12272;52.426;17.100;2022-08-01T00:35:09;1.85;;;1.75;;
24090;SDS011;12272;52.426;17.100;2022-08-01T00:40:12;1.90;;;1.80;;
24090;SDS011;12272;52.426;17.100;2022-08-01T00:45:14;2.10;;;1.88;;
24090;SDS011;12272;52.426;17.100;2022-08-01T00:50:17;2.33;;;2.13;;
24090;SDS011;12272;52.426;17.100;2022-08-01T00:55:20;1.85;;;1.75;;
24090;SDS011;12272;52.426;17.100;2022-08-01T01:00:22;1.88;;;1.65;;
24090;SDS011;12272;52.426;17.100;2022-08-01T01:05:28;1.70;;;1.60;;
24090;SDS011;12272;52.426;17.100;2022-08-01T01:15:57;2.00;;;1.90;;
24090;SDS011;12272;52.426;17.100;2022-08-01T01:26:26;2.03;;;1.90;;
24090;SDS011;12272;52.426;17.100;2022-08-01T01:31:41;2.00;;;1.77;;
24090;SDS011;12272;52.426;17.100;2022-08-01T01:36:48;2.15;;;2.05;;
24090;SDS011;12272;52.426;17.100;2022-08-01T01:41:52;1.67;;;1.58;;
24090;SDS011;12272;52.426;17.100;2022-08-01T01:46:57;2.10;;;1.83;;
24090;SDS011;12272;52.426;17.100;2022-08-01T01:52:01;2.85;;;1.80;;
24090;SDS011;12272;52.426;17.100;2022-08-01T01:57:05;1.70;;;1.60;;
24090;SDS011;12272;52.426;17.100;2022-08-01T02:02:10;1.77;;;1.67;;
24090;SDS011;12272;52.426;17.100;2022-08-01T02:07:17;2.47;;;1.70;;
24090;SDS011;12272;52.426;17.100;2022-08-01T02:12:22;2.33;;;1.88;;
24090;SDS011;12272;52.426;17.100;2022-08-01T02:17:26;1.83;;;1.70;;
24090;SDS011;12272;52.426;17.100;2022-08-01T02:22:31;1.63;;;1.52;;
24090;SDS011;12272;52.426;17.100;2022-08-01T02:28:38;1.85;;;1.75;;
24090;SDS011;12272;52.426;17.100;2022-08-01T02:33:27;1.85;;;1.75;;
24090;SDS011;12272;52.426;17.100;2022-08-01T02:38:40;1.70;;;1.60;;
24090;SDS011;12272;52.426;17.100;2022-08-01T02:43:46;1.60;;;1.50;;
24090;SDS011;12272;52.426;17.100;2022-08-01T02:48:54;3.35;;;2.05;;
24090;SDS011;12272;52.426;17.100;2022-08-01T02:54:00;2.30;;;2.10;;
24090;SDS011;12272;52.426;17.100;2022-08-01T02:59:05;2.45;;;1.98;;
24090;SDS011;12272;52.426;17.100;2022-08-01T03:04:16;2.28;;;1.83;;
24090;SDS011;12272;52.426;17.100;2022-08-01T03:09:20;3.25;;;2.45;;
24090;SDS011;12272;52.426;17.100;2022-08-01T03:14:24;2.03;;;1.65;;
24090;SDS011;12272;52.426;17.100;2022-08-01T03:19:28;1.63;;;1.52;;
24090;SDS011;12272;52.426;17.100;2022-08-01T03:24:33;2.47;;;1.83;;
24090;SDS011;12272;52.426;17.100;2022-08-01T03:29:37;1.70;;;1.60;;
24090;SDS011;12272;52.426;17.100;2022-08-01T03:34:41;1.88;;;1.77;;
24090;SDS011;12272;52.426;17.100;2022-08-01T03:39:47;3.58;;;1.88;;
24090;SDS011;12272;52.426;17.100;2022-08-01T03:44:54;2.05;;;1.85;;
24090;SDS011;12272;52.426;17.100;2022-08-01T03:50:01;3.35;;;1.88;;
24090;SDS011;12272;52.426;17.100;2022-08-01T03:55:11;2.00;;;1.80;;
24090;SDS011;12272;52.426;17.100;2022-08-01T04:00:14;2.42;;;2.08;;
24090;SDS011;12272;52.426;17.100;2022-08-01T04:05:20;2.03;;;1.85;;
24090;SDS011;12272;52.426;17.100;2022-08-01T04:10:23;2.08;;;1.88;;
24090;SDS011;12272;52.426;17.100;2022-08-01T04:15:26;1.92;;;1.83;;
24090;SDS011;12272;52.426;17.100;2022-08-01T04:20:28;2.20;;;2.00;;
24090;SDS011;12272;52.426;17.100;2022-08-01T04:25:32;2.30;;;2.10;;
24090;SDS011;12272;52.426;17.100;2022-08-01T04:30:36;2.28;;;2.08;;
24090;SDS011;12272;52.426;17.100;2022-08-01T04:35:43;2.17;;;1.90;;
24090;SDS011;12272;52.426;17.100;2022-08-01T04:41:06;2.15;;;1.65;;
24090;SDS011;12272;52.426;17.100;2022-08-01T04:46:12;2.30;;;2.15;;
24090;SDS011;12272;52.426;17.100;2022-08-01T04:51:16;2.13;;;1.95;;
24090;SDS011;12272;52.426;17.100;2022-08-01T04:56:20;1.90;;;1.80;;
24090;SDS011;12272;52.426;17.100;2022-08-01T05:01:22;2.08;;;1.88;;
24090;SDS011;12272;52.426;17.100;2022-08-01T05:06:25;2.17;;;1.98;;
24090;SDS011;12272;52.426;17.100;2022-08-01T05:11:28;2.05;;;1.95;;
24090;SDS011;12272;52.426;17.100;2022-08-01T05:16:30;1.70;;;1.60;;
24090;SDS011;12272;52.426;17.100;2022-08-01T05:21:33;2.25;;;2.05;;
24090;SDS011;12272;52.426;17.100;2022-08-01T05:26:36;2.33;;;2.13;;
24090;SDS011;12272;52.426;17.100;2022-08-01T05:31:39;1.73;;;1.63;;
24090;SDS011;12272;52.426;17.100;2022-08-01T05:36:42;2.38;;;2.17;;
24090;SDS011;12272;52.426;17.100;2022-08-01T05:41:45;2.05;;;1.85;;
24090;SDS011;12272;52.426;17.100;2022-08-01T05:46:47;1.90;;;1.80;;
24090;SDS011;12272;52.426;17.100;2022-08-01T05:51:50;2.08;;;1.92;;
24090;SDS011;12272;52.426;17.100;2022-08-01T05:56:52;1.75;;;1.65;;
24090;SDS011;12272;52.426;17.100;2022-08-01T06:01:55;1.98;;;1.80;;
24090;SDS011;12272;52.426;17.100;2022-08-01T06:06:58;2.28;;;2.05;;
24090;SDS011;12272;52.426;17.100;2022-08-01T06:12:00;1.95;;;1.75;;
24090;SDS011;12272;52.426;17.100;2022-08-01T06:17:03;2.20;;;2.00;;
24090;SDS011;12272;52.426;17.100;2022-08-01T06:22:06;2.10;;;1.90;;
24090;SDS011;12272;52.426;17.100;2022-08-01T06:27:09;2.25;;;2.05;;
24090;SDS011;12272;52.426;17.100;2022-08-01T06:32:23;2.15;;;1.95;;
24090;SDS011;12272;52.426;17.100;2022-08-01T06:37:29;2.50;;;2.30;;
24090;SDS011;12272;52.426;17.100;2022-08-01T06:42:32;2.15;;;1.95;;
24090;SDS011;12272;52.426;17.100;2022-08-01T06:47:37;1.80;;;1.70;;
24090;SDS011;12272;52.426;17.100;2022-08-01T06:52:40;6.03;;;1.98;;
24090;SDS011;12272;52.426;17.100;2022-08-01T06:57:47;2.38;;;2.00;;
24090;SDS011;12272;52.426;17.100;2022-08-01T07:02:55;2.30;;;2.10;;
24090;SDS011;12272;52.426;17.100;2022-08-01T07:08:00;2.13;;;2.03;;
24090;SDS011;12272;52.426;17.100;2022-08-01T07:13:02;2.08;;;1.88;;
24090;SDS011;12272;52.426;17.100;2022-08-01T07:18:05;2.15;;;1.95;;
24090;SDS011;12272;52.426;17.100;2022-08-01T07:23:07;3.00;;;2.30;;
24090;SDS011;12272;52.426;17.100;2022-08-01T07:28:13;2.65;;;2.45;;
24090;SDS011;12272;52.426;17.100;2022-08-01T07:33:16;4.00;;;2.63;;
24090;SDS011;12272;52.426;17.100;2022-08-01T07:38:19;1.98;;;1.80;;
24090;SDS011;12272;52.426;17.100;2022-08-01T07:43:21;2.13;;;1.92;;
24090;SDS011;12272;52.426;17.100;2022-08-01T07:48:23;1.65;;;1.50;;
24090;SDS011;12272;52.426;17.100;2022-08-01T07:53:27;3.28;;;2.72;;
24090;SDS011;12272;52.426;17.100;2022-08-01T07:58:30;2.58;;;2.38;;
24090;SDS011;12272;52.426;17.100;2022-08-01T08:03:33;3.88;;;2.20;;
24090;SDS011;12272;52.426;17.100;2022-08-01T08:08:36;2.13;;;2.00;;
24090;SDS011;12272;52.426;17.100;2022-08-01T08:13:38;2.35;;;2.15;;
24090;SDS011;12272;52.426;17.100;2022-08-01T08:18:41;3.72;;;3.42;;
24090;SDS011;12272;52.426;17.100;2022-08-01T08:23:43;2.70;;;2.50;;
24090;SDS011;12272;52.426;17.100;2022-08-01T08:29:04;3.58;;;3.28;;
24090;SDS011;12272;52.426;17.100;2022-08-01T08:34:07;3.40;;;2.90;;
24090;SDS011;12272;52.426;17.100;2022-08-01T08:39:10;4.03;;;3.72;;
24090;SDS011;12272;52.426;17.100;2022-08-01T08:44:12;4.47;;;4.03;;
24090;SDS011;12272;52.426;17.100;2022-08-01T08:49:18;8.30;;;5.15;;
24090;SDS011;12272;52.426;17.100;2022-08-01T08:54:23;4.30;;;3.88;;
24090;SDS011;12272;52.426;17.100;2022-08-01T08:59:32;9.50;;;7.53;;
24090;SDS011;12272;52.426;17.100;2022-08-01T09:04:35;10.48;;;7.57;;
24090;SDS011;12272;52.426;17.100;2022-08-01T09:09:39;7.60;;;6.88;;
24090;SDS011;12272;52.426;17.100;2022-08-01T09:14:46;12.70;;;9.63;;
24090;SDS011;12272;52.426;17.100;2022-08-01T09:19:50;12.43;;;10.35;;
24090;SDS011;12272;52.426;17.100;2022-08-01T09:24:59;7.38;;;6.15;;
24090;SDS011;12272;52.426;17.100;2022-08-01T09:30:14;4.00;;;3.60;;
24090;SDS011;12272;52.426;17.100;2022-08-01T09:35:25;3.65;;;3.35;;
24090;SDS011;12272;52.426;17.100;2022-08-01T09:40:43;10.10;;;9.05;;
24090;SDS011;12272;52.426;17.100;2022-08-01T09:45:47;4.45;;;3.97;;
24090;SDS011;12272;52.426;17.100;2022-08-01T09:50:53;7.82;;;7.13;;
24090;SDS011;12272;52.426;17.100;2022-08-01T09:56:09;5.82;;;3.90;;
24090;SDS011;12272;52.426;17.100;2022-08-01T10:01:12;7.78;;;5.97;;
24090;SDS011;12272;52.426;17.100;2022-08-01T10:06:19;18.20;;;8.23;;
24090;SDS011;12272;52.426;17.100;2022-08-01T10:11:25;8.07;;;6.78;;
24090;SDS011;12272;52.426;17.100;2022-08-01T10:16:37;8.48;;;7.18;;
24090;SDS011;12272;52.426;17.100;2022-08-01T10:21:41;4.68;;;3.95;;
24090;SDS011;12272;52.426;17.100;2022-08-01T10:27:02;8.80;;;6.28;;
24090;SDS011;12272;52.426;17.100;2022-08-01T10:32:10;5.30;;;4.85;;
24090;SDS011;12272;52.426;17.100;2022-08-01T10:37:12;5.10;;;4.60;;
24090;SDS011;12272;52.426;17.100;2022-08-01T10:42:16;11.82;;;7.22;;
24090;SDS011;12272;52.426;17.100;2022-08-01T10:47:24;8.60;;;6.00;;
24090;SDS011;12272;52.426;17.100;2022-08-01T10:53:35;8.45;;;6.40;;
24090;SDS011;12272;52.426;17.100;2022-08-01T10:58:36;5.78;;;5.28;;
24090;SDS011;12272;52.426;17.100;2022-08-01T11:03:55;6.47;;;4.43;;
24090;SDS011;12272;52.426;17.100;2022-08-01T11:14:17;5.95;;;3.97;;
24090;SDS011;12272;52.426;17.100;2022-08-01T11:19:32;5.47;;;3.13;;
24090;SDS011;12272;52.426;17.100;2022-08-01T11:25:09;6.43;;;3.45;;
24090;SDS011;12272;52.426;17.100;2022-08-01T11:35:22;3.28;;;2.97;;
24090;SDS011;12272;52.426;17.100;2022-08-01T11:40:30;3.40;;;3.10;;
24090;SDS011;12272;52.426;17.100;2022-08-01T11:45:46;3.67;;;3.38;;
24090;SDS011;12272;52.426;17.100;2022-08-01T11:51:00;8.00;;;4.35;;
24090;SDS011;12272;52.426;17.100;2022-08-01T11:56:03;3.65;;;3.30;;
24090;SDS011;12272;52.426;17.100;2022-08-01T12:01:06;5.38;;;4.15;;
24090;SDS011;12272;52.426;17.100;2022-08-01T12:06:14;3.47;;;3.17;;
24090;SDS011;12272;52.426;17.100;2022-08-01T12:11:29;3.90;;;3.55;;
24090;SDS011;12272;52.426;17.100;2022-08-01T12:16:38;4.90;;;2.97;;
24090;SDS011;12272;52.426;17.100;2022-08-01T12:21:41;3.40;;;3.20;;
24090;SDS011;12272;52.426;17.100;2022-08-01T12:26:43;4.72;;;3.60;;
24090;SDS011;12272;52.426;17.100;2022-08-01T12:31:46;4.00;;;3.70;;
24090;SDS011;12272;52.426;17.100;2022-08-01T12:36:48;3.90;;;3.60;;
24090;SDS011;12272;52.426;17.100;2022-08-01T12:41:51;3.67;;;3.38;;
24090;SDS011;12272;52.426;17.100;2022-08-01T12:46:53;4.75;;;3.38;;
24090;SDS011;12272;52.426;17.100;2022-08-01T12:51:56;3.20;;;2.92;;
24090;SDS011;12272;52.426;17.100;2022-08-01T12:56:59;3.67;;;3.38;;
24090;SDS011;12272;52.426;17.100;2022-08-01T13:02:07;3.65;;;3.30;;
24090;SDS011;12272;52.426;17.100;2022-08-01T13:07:10;3.78;;;3.47;;
24090;SDS011;12272;52.426;17.100;2022-08-01T13:12:13;4.90;;;4.50;;
24090;SDS011;12272;52.426;17.100;2022-08-01T13:17:29;5.20;;;4.25;;
24090;SDS011;12272;52.426;17.100;2022-08-01T13:22:35;5.78;;;3.75;;
24090;SDS011;12272;52.426;17.100;2022-08-01T13:27:38;7.75;;;6.05;;
24090;SDS011;12272;52.426;17.100;2022-08-01T13:32:57;10.50;;;5.57;;
24090;SDS011;12272;52.426;17.100;2022-08-01T13:38:01;3.78;;;3.55;;
24090;SDS011;12272;52.426;17.100;2022-08-01T13:43:03;7.43;;;5.85;;
24090;SDS011;12272;52.426;17.100;2022-08-01T13:48:06;5.03;;;4.53;;
24090;SDS011;12272;52.426;17.100;2022-08-01T13:53:19;5.30;;;3.70;;
24090;SDS011;12272;52.426;17.100;2022-08-01T13:58:22;3.97;;;3.67;;
24090;SDS011;12272;52.426;17.100;2022-08-01T14:03:25;3.45;;;3.17;;
24090;SDS011;12272;52.426;17.100;2022-08-01T14:08:34;4.78;;;3.42;;
24090;SDS011;12272;52.426;17.100;2022-08-01T14:13:37;3.97;;;3.60;;
24090;SDS011;12272;52.426;17.100;2022-08-01T14:18:47;4.68;;;2.60;;
24090;SDS011;12272;52.426;17.100;2022-08-01T14:23:50;3.60;;;3.33;;
24090;SDS011;12272;52.426;17.100;2022-08-01T14:28:52;3.65;;;3.35;;
24090;SDS011;12272;52.426;17.100;2022-08-01T14:33:55;4.60;;;4.20;;
24090;SDS011;12272;52.426;17.100;2022-08-01T14:38:58;4.32;;;3.85;;
24090;SDS011;12272;52.426;17.100;2022-08-01T14:44:01;6.18;;;5.05;;
24090;SDS011;12272;52.426;17.100;2022-08-01T14:49:05;6.78;;;5.13;;
24090;SDS011;12272;52.426;17.100;2022-08-01T14:54:08;8.95;;;5.25;;
24090;SDS011;12272;52.426;17.100;2022-08-01T14:59:10;7.20;;;5.45;;
24090;SDS011;12272;52.426;17.100;2022-08-01T15:04:22;6.15;;;4.80;;
24090;SDS011;12272;52.426;17.100;2022-08-01T15:09:25;4.90;;;4.50;;
24090;SDS011;12272;52.426;17.100;2022-08-01T15:14:27;10.40;;;6.45;;
24090;SDS011;12272;52.426;17.100;2022-08-01T15:19:49;6.00;;;5.45;;
24090;SDS011;12272;52.426;17.100;2022-08-01T15:24:54;4.68;;;4.28;;
24090;SDS011;12272;52.426;17.100;2022-08-01T15:29:58;5.53;;;5.03;;
24090;SDS011;12272;52.426;17.100;2022-08-01T15:35:01;5.60;;;4.93;;
24090;SDS011;12272;52.426;17.100;2022-08-01T15:40:03;6.30;;;5.15;;
24090;SDS011;12272;52.426;17.100;2022-08-01T15:45:07;4.85;;;4.47;;
24090;SDS011;12272;52.426;17.100;2022-08-01T15:50:31;4.95;;;4.53;;
24090;SDS011;12272;52.426;17.100;2022-08-01T15:55:37;3.95;;;3.65;;
24090;SDS011;12272;52.426;17.100;2022-08-01T16:00:40;4.60;;;4.22;;
24090;SDS011;12272;52.426;17.100;2022-08-01T16:05:43;4.00;;;3.70;;
24090;SDS011;12272;52.426;17.100;2022-08-01T16:10:45;4.22;;;3.83;;
24090;SDS011;12272;52.426;17.100;2022-08-01T16:15:48;3.88;;;3.58;;
24090;SDS011;12272;52.426;17.100;2022-08-01T16:20:50;4.30;;;4.00;;
24090;SDS011;12272;52.426;17.100;2022-08-01T16:25:53;6.57;;;3.88;;
24090;SDS011;12272;52.426;17.100;2022-08-01T16:30:56;4.10;;;3.80;;
24090;SDS011;12272;52.426;17.100;2022-08-01T16:36:18;6.80;;;4.10;;
24090;SDS011;12272;52.426;17.100;2022-08-01T16:41:21;6.97;;;3.60;;
24090;SDS011;12272;52.426;17.100;2022-08-01T16:46:24;3.65;;;3.30;;
24090;SDS011;12272;52.426;17.100;2022-08-01T16:51:27;3.28;;;3.00;;
24090;SDS011;12272;52.426;17.100;2022-08-01T16:56:33;4.75;;;3.70;;
24090;SDS011;12272;52.426;17.100;2022-08-01T17:01:36;4.38;;;3.20;;
24090;SDS011;12272;52.426;17.100;2022-08-01T17:06:58;4.13;;;3.78;;
24090;SDS011;12272;52.426;17.100;2022-08-01T17:12:01;4.07;;;3.78;;
24090;SDS011;12272;52.426;17.100;2022-08-01T17:17:04;4.05;;;3.10;;
24090;SDS011;12272;52.426;17.100;2022-08-01T17:22:07;4.18;;;3.20;;
24090;SDS011;12272;52.426;17.100;2022-08-01T17:27:10;3.28;;;3.08;;
24090;SDS011;12272;52.426;17.100;2022-08-01T17:32:14;5.80;;;3.22;;
24090;SDS011;12272;52.426;17.100;2022-08-01T17:37:17;3.28;;;2.97;;
24090;SDS011;12272;52.426;17.100;2022-08-01T17:42:19;3.40;;;3.10;;
24090;SDS011;12272;52.426;17.100;2022-08-01T17:47:22;3.35;;;3.15;;
24090;SDS011;12272;52.426;17.100;2022-08-01T17:52:45;3.33;;;2.97;;
24090;SDS011;12272;52.426;17.100;2022-08-01T17:57:48;4.75;;;3.15;;
24090;SDS011;12272;52.426;17.100;2022-08-01T18:02:51;4.85;;;3.42;;
24090;SDS011;12272;52.426;17.100;2022-08-01T18:07:53;5.30;;;3.25;;
24090;SDS011;12272;52.426;17.100;2022-08-01T18:13:02;3.95;;;3.65;;
24090;SDS011;12272;52.426;17.100;2022-08-01T18:18:06;3.75;;;2.88;;
24090;SDS011;12272;52.426;17.100;2022-08-01T18:23:09;5.55;;;3.75;;
24090;SDS011;12272;52.426;17.100;2022-08-01T18:28:12;4.03;;;3.72;;
24090;SDS011;12272;52.426;17.100;2022-08-01T18:33:31;4.25;;;3.95;;
24090;SDS011;12272;52.426;17.100;2022-08-01T18:38:35;4.10;;;3.70;;
24090;SDS011;12272;52.426;17.100;2022-08-01T18:43:43;3.75;;;3.47;;
24090;SDS011;12272;52.426;17.100;2022-08-01T18:48:45;4.10;;;3.78;;
24090;SDS011;12272;52.426;17.100;2022-08-01T18:53:49;3.85;;;3.58;;
24090;SDS011;12272;52.426;17.100;2022-08-01T18:58:53;5.65;;;3.40;;
24090;SDS011;12272;52.426;17.100;2022-08-01T19:03:56;3.70;;;3.50;;
24090;SDS011;12272;52.426;17.100;2022-08-01T19:08:58;5.25;;;4.30;;
24090;SDS011;12272;52.426;17.100;2022-08-01T19:14:03;4.65;;;4.15;;
24090;SDS011;12272;52.426;17.100;2022-08-01T19:19:06;3.90;;;3.60;;
24090;SDS011;12272;52.426;17.100;2022-08-01T19:24:10;4.85;;;4.40;;
24090;SDS011;12272;52.426;17.100;2022-08-01T19:29:25;4.68;;;3.78;;
24090;SDS011;12272;52.426;17.100;2022-08-01T19:34:41;4.38;;;4.07;;
24090;SDS011;12272;52.426;17.100;2022-08-01T19:40:00;4.10;;;3.70;;
24090;SDS011;12272;52.426;17.100;2022-08-01T19:45:02;4.10;;;3.80;;
24090;SDS011;12272;52.426;17.100;2022-08-01T19:50:06;5.25;;;4.75;;
24090;SDS011;12272;52.426;17.100;2022-08-01T19:55:09;7.90;;;5.18;;
24090;SDS011;12272;52.426;17.100;2022-08-01T20:00:13;9.32;;;5.95;;
24090;SDS011;12272;52.426;17.100;2022-08-01T20:05:29;4.70;;;4.32;;
24090;SDS011;12272;52.426;17.100;2022-08-01T20:10:32;6.38;;;5.88;;
24090;SDS011;12272;52.426;17.100;2022-08-01T20:15:37;6.57;;;5.80;;
24090;SDS011;12272;52.426;17.100;2022-08-01T20:20:39;7.03;;;5.38;;
24090;SDS011;12272;52.426;17.100;2022-08-01T20:25:45;4.30;;;4.00;;
24090;SDS011;12272;52.426;17.100;2022-08-01T20:30:52;6.80;;;6.15;;
24090;SDS011;12272;52.426;17.100;2022-08-01T20:35:57;6.32;;;5.82;;
24090;SDS011;12272;52.426;17.100;2022-08-01T20:41:03;7.07;;;6.03;;
24090;SDS011;12272;52.426;17.100;2022-08-01T20:46:06;7.00;;;5.60;;
24090;SDS011;12272;52.426;17.100;2022-08-01T20:51:09;6.53;;;5.93;;
24090;SDS011;12272;52.426;17.100;2022-08-01T21:01:29;5.88;;;5.38;;
24090;SDS011;12272;52.426;17.100;2022-08-01T21:06:37;4.30;;;4.00;;
24090;SDS011;12272;52.426;17.100;2022-08-01T21:11:50;4.97;;;4.38;;
24090;SDS011;12272;52.426;17.100;2022-08-01T21:16:57;4.95;;;4.38;;
24090;SDS011;12272;52.426;17.100;2022-08-01T21:22:10;5.00;;;4.57;;
24090;SDS011;12272;52.426;17.100;2022-08-01T21:27:30;6.72;;;6.05;;
24090;SDS011;12272;52.426;17.100;2022-08-01T21:32:35;5.78;;;5.28;;
24090;SDS011;12272;52.426;17.100;2022-08-01T21:37:38;6.38;;;5.22;;
24090;SDS011;12272;52.426;17.100;2022-08-01T21:42:44;4.65;;;4.28;;
24090;SDS011;12272;52.426;17.100;2022-08-01T21:47:48;4.95;;;4.55;;
24090;SDS011;12272;52.426;17.100;2022-08-01T21:58:34;4.78;;;4.38;;
24090;SDS011;12272;52.426;17.100;2022-08-01T22:03:45;6.50;;;5.82;;
24090;SDS011;12272;52.426;17.100;2022-08-01T22:08:53;5.40;;;5.00;;
24090;SDS011;12272;52.426;17.100;2022-08-01T22:14:01;6.60;;;5.93;;
24090;SDS011;12272;52.426;17.100;2022-08-01T22:19:09;4.70;;;4.30;;
24090;SDS011;12272;52.426;17.100;2022-08-01T22:24:32;6.85;;;6.25;;
24090;SDS011;12272;52.426;17.100;2022-08-01T22:29:35;14.60;;;6.60;;
24090;SDS011;12272;52.426;17.100;2022-08-01T22:34:38;6.40;;;5.90;;
24090;SDS011;12272;52.426;17.100;2022-08-01T22:39:40;6.68;;;6.07;;
24090;SDS011;12272;52.426;17.100;2022-08-01T22:44:50;6.75;;;6.03;;
24090;SDS011;12272;52.426;17.100;2022-08-01T22:50:03;6.03;;;5.30;;
24090;SDS011;12272;52.426;17.100;2022-08-01T22:55:08;4.75;;;4.35;;
24090;SDS011;12272;52.426;17.100;2022-08-01T23:00:12;5.40;;;4.97;;
24090;SDS011;12272;52.426;17.100;2022-08-01T23:05:19;5.95;;;5.45;;
24090;SDS011;12272;52.426;17.100;2022-08-01T23:10:24;5.13;;;4.72;;
24090;SDS011;12272;52.426;17.100;2022-08-01T23:15:27;5.88;;;4.70;;
24090;SDS011;12272;52.426;17.100;2022-08-01T23:20:31;4.93;;;4.53;;
24090;SDS011;12272;52.426;17.100;2022-08-01T23:25:36;6.88;;;5.05;;
24090;SDS011;12272;52.426;17.100;2022-08-01T23:30:40;4.45;;;4.15;;
24090;SDS011;12272;52.426;17.100;2022-08-01T23:35:43;6.72;;;5.05;;
24090;SDS011;12272;52.426;17.100;2022-08-01T23:40:46;5.03;;;4.63;;
24090;SDS011;12272;52.426;17.100;2022-08-01T23:45:50;5.15;;;4.65;;
24090;SDS011;12272;52.426;17.100;2022-08-01T23:51:05;5.53;;;4.43;;
24090;SDS011;12272;52.426;17.100;2022-08-01T23:56:10;4.20;;;3.90;;
